Time;durP1;ratioP1;P1;durP2;ratioP2;P2;SDS_P1;SDS_P2;PMS_P1;PMS_P2;Temp;Humidity;BMP_temperature;BMP_pressure;BME280_temperature;BME280_humidity;BME280_pressure;Samples;Min_cycle;Max_cycle;Signal;HPM_P1;HPM_P2
2022/12/23 00:00:37;;;;;;;13.67;4.40;;;14.00;97.20;;;;;;5031593;28;20208;-93
2022/12/23 00:03:27;;;;;;;8.83;2.93;;;14.10;97.20;;;;;;5043668;28;20214;-93
2022/12/23 00:06:18;;;;;;;14.27;3.90;;;14.00;97.20;;;;;;5015727;28;20212;-93
2022/12/23 00:08:56;;;;;;;12.87;3.73;;;14.10;97.20;;;;;;5020151;28;20223;-91
2022/12/23 00:11:32;;;;;;;10.80;3.17;;;14.10;97.20;;;;;;5030546;28;20204;-93
2022/12/23 00:16:52;;;;;;;11.97;3.67;;;14.00;97.10;;;;;;5036144;28;20235;-92
2022/12/23 00:19:25;;;;;;;9.13;2.73;;;14.00;97.20;;;;;;5038866;28;20221;-94
2022/12/23 00:21:56;;;;;;;14.73;3.87;;;14.00;97.20;;;;;;5041819;28;20242;-92
2022/12/23 00:24:24;;;;;;;9.40;3.27;;;14.00;97.20;;;;;;5051610;28;20199;-93
2022/12/23 00:26:53;;;;;;;8.40;3.20;;;14.00;97.20;;;;;;5042311;28;20197;-93
2022/12/23 00:29:27;;;;;;;12.03;4.37;;;14.00;97.20;;;;;;5033873;28;20214;-93
2022/12/23 00:31:58;;;;;;;11.23;3.70;;;14.00;97.20;;;;;;5043160;28;20203;-92
2022/12/23 00:34:29;;;;;;;14.07;3.47;;;14.00;97.20;;;;;;5043320;28;20203;-93
2022/12/23 00:36:57;;;;;;;11.17;4.03;;;14.00;97.20;;;;;;5038046;28;20228;-93
2022/12/23 00:45:14;;;;;;;12.60;3.73;;;14.00;97.10;;;;;;5047975;28;20211;-93
2022/12/23 00:50:36;;;;;;;16.17;4.40;;;14.10;97.40;;;;;;5022759;28;20220;-92
2022/12/23 00:53:04;;;;;;;9.90;3.53;;;14.10;97.10;;;;;;5019416;28;20873;-93
2022/12/23 00:55:37;;;;;;;15.27;4.67;;;14.00;97.00;;;;;;5030314;28;20204;-93
2022/12/23 00:58:06;;;;;;;13.90;3.83;;;14.10;97.00;;;;;;5035712;28;20307;-93
2022/12/23 01:06:09;;;;;;;17.63;4.33;;;14.10;97.00;;;;;;5029442;28;20280;-92
2022/12/23 01:08:41;;;;;;;10.97;3.50;;;14.10;97.00;;;;;;5023287;28;20604;-93
2022/12/23 01:11:12;;;;;;;16.50;5.23;;;14.10;96.90;;;;;;5034037;28;20216;-93
2022/12/23 01:13:41;;;;;;;13.83;4.00;;;14.10;96.90;;;;;;5035944;28;20265;-94
2022/12/23 01:16:12;;;;;;;14.10;4.03;;;14.10;97.00;;;;;;5028077;28;20208;-91
2022/12/23 01:18:52;;;;;;;11.80;4.07;;;14.10;97.00;;;;;;5028389;28;20231;-93
2022/12/23 01:21:21;;;;;;;14.23;4.33;;;14.10;97.00;;;;;;5023220;28;20566;-93
2022/12/23 01:23:51;;;;;;;10.57;3.80;;;14.00;96.90;;;;;;5025009;28;20238;-93
2022/12/23 01:26:20;;;;;;;12.47;4.30;;;14.00;96.90;;;;;;5036517;28;20551;-92
2022/12/23 01:28:47;;;;;;;12.37;4.57;;;14.10;97.00;;;;;;5035750;28;20655;-93
2022/12/23 01:31:17;;;;;;;10.47;4.00;;;14.00;97.00;;;;;;5039076;28;20200;-93
2022/12/23 01:33:46;;;;;;;12.07;4.53;;;14.10;97.00;;;;;;5043248;28;20211;-93
2022/12/23 01:36:17;;;;;;;15.17;4.07;;;14.10;96.90;;;;;;5040368;28;20235;-92
2022/12/23 01:38:51;;;;;;;10.93;3.87;;;14.10;96.90;;;;;;5039618;28;20223;-92
2022/12/23 01:44:44;;;;;;;13.77;3.60;;;14.10;96.90;;;;;;5037918;28;20226;-93
2022/12/23 01:47:17;;;;;;;16.20;4.97;;;14.10;96.90;;;;;;5039985;28;20260;-94
2022/12/23 01:49:55;;;;;;;11.80;4.00;;;14.10;97.00;;;;;;5042395;28;20245;-93
2022/12/23 01:52:23;;;;;;;11.03;3.53;;;14.10;96.90;;;;;;5038860;28;20249;-92
2022/12/23 01:54:57;;;;;;;14.67;5.03;;;14.00;96.90;;;;;;5043852;28;20201;-93
2022/12/23 01:57:29;;;;;;;16.00;4.83;;;14.00;96.90;;;;;;5054053;28;20199;-92
2022/12/23 02:05:29;;;;;;;13.07;4.23;;;14.00;96.90;;;;;;5049446;28;20227;-92
2022/12/23 02:10:55;;;;;;;14.57;4.00;;;14.10;96.90;;;;;;5049922;28;20237;-92
2022/12/23 02:13:33;;;;;;;13.50;4.43;;;14.10;96.90;;;;;;5052011;28;20291;-93
2022/12/23 02:16:16;;;;;;;12.17;4.00;;;14.00;96.90;;;;;;5051629;28;20674;-92
2022/12/23 02:19:09;;;;;;;11.97;4.00;;;14.00;97.10;;;;;;5053962;28;20219;-93
2022/12/23 02:22:05;;;;;;;17.27;5.07;;;14.00;96.90;;;;;;5046011;28;20237;-93
2022/12/23 02:25:13;;;;;;;8.90;3.37;;;14.00;96.90;;;;;;5028060;28;20219;-92
2022/12/23 02:27:59;;;;;;;11.10;4.07;;;14.00;96.90;;;;;;5014513;28;20568;-92
2022/12/23 02:30:45;;;;;;;16.07;5.17;;;14.00;96.90;;;;;;5042222;28;20192;-92
2022/12/23 02:33:33;;;;;;;14.40;4.20;;;14.00;97.00;;;;;;5026653;28;20261;-92
2022/12/23 02:36:14;;;;;;;12.17;4.90;;;14.00;97.00;;;;;;5036379;28;20234;-92
2022/12/23 02:38:48;;;;;;;9.57;3.33;;;14.00;97.00;;;;;;5043166;28;20261;-92
2022/12/23 02:41:26;;;;;;;16.70;4.20;;;14.00;96.90;;;;;;5041893;28;20264;-92
2022/12/23 02:44:00;;;;;;;16.13;4.93;;;14.00;96.90;;;;;;5045229;28;20248;-94
2022/12/23 02:46:36;;;;;;;12.80;5.20;;;14.00;96.90;;;;;;5050143;28;20226;-93
2022/12/23 02:49:10;;;;;;;10.73;4.07;;;14.00;96.90;;;;;;5050316;28;20195;-92
2022/12/23 02:51:44;;;;;;;10.27;4.20;;;13.90;96.80;;;;;;5050789;28;20235;-92
2022/12/23 02:54:20;;;;;;;13.97;4.70;;;13.90;96.80;;;;;;5040438;28;20196;-93
2022/12/23 02:56:51;;;;;;;15.43;5.50;;;13.90;96.90;;;;;;5038515;28;20237;-92
2022/12/23 02:59:37;;;;;;;15.23;4.53;;;13.90;96.80;;;;;;5039641;28;20227;-93
2022/12/23 03:02:09;;;;;;;12.37;4.53;;;13.90;96.80;;;;;;5038948;28;20206;-93
2022/12/23 03:04:40;;;;;;;10.93;4.27;;;13.90;96.90;;;;;;5036884;28;20234;-93
2022/12/23 03:07:17;;;;;;;14.33;4.90;;;13.90;96.90;;;;;;5037866;28;20203;-93
2022/12/23 03:09:55;;;;;;;11.30;3.97;;;13.90;96.90;;;;;;5036862;28;20647;-93
2022/12/23 03:12:35;;;;;;;13.47;4.47;;;13.90;96.90;;;;;;5035726;28;20200;-93
2022/12/23 03:15:21;;;;;;;11.07;4.93;;;13.90;96.90;;;;;;5035750;28;20257;-93
2022/12/23 03:18:01;;;;;;;10.47;4.20;;;13.90;96.90;;;;;;5024052;28;20245;-93
2022/12/23 03:20:41;;;;;;;12.50;3.73;;;13.90;96.90;;;;;;5033253;28;20672;-93
2022/12/23 03:23:20;;;;;;;10.67;4.20;;;13.90;96.80;;;;;;5033371;28;20570;-93
2022/12/23 03:25:57;;;;;;;16.53;4.87;;;13.90;96.70;;;;;;5027363;28;20204;-92
2022/12/23 03:28:32;;;;;;;12.70;4.83;;;13.90;96.70;;;;;;5041787;28;20652;-93
2022/12/23 03:31:00;;;;;;;17.87;4.93;;;13.90;96.70;;;;;;5040151;28;20210;-93
2022/12/23 03:33:35;;;;;;;8.50;3.47;;;13.90;96.70;;;;;;5044970;28;20283;-92
2022/12/23 03:36:22;;;;;;;12.20;4.33;;;13.90;96.70;;;;;;5046438;28;20215;-92
2022/12/23 03:38:53;;;;;;;16.20;5.23;;;13.90;96.60;;;;;;5031819;28;20213;-93
2022/12/23 03:41:27;;;;;;;13.77;3.83;;;13.90;96.60;;;;;;5018435;28;20668;-93
2022/12/23 03:44:01;;;;;;;15.03;4.93;;;13.90;96.60;;;;;;5031201;28;20634;-93
2022/12/23 03:46:46;;;;;;;10.43;3.93;;;13.90;96.50;;;;;;5018356;28;20749;-93
2022/12/23 03:49:20;;;;;;;10.77;4.07;;;13.90;96.60;;;;;;5015824;28;20207;-92
2022/12/23 03:51:53;;;;;;;12.50;4.77;;;13.90;96.60;;;;;;5033019;28;20676;-93
2022/12/23 03:54:27;;;;;;;14.07;4.63;;;13.90;96.60;;;;;;5028200;28;20646;-93
2022/12/23 03:57:02;;;;;;;11.27;3.73;;;13.90;96.60;;;;;;5029022;28;20207;-93
2022/12/23 03:59:34;;;;;;;7.77;4.03;;;13.90;96.60;;;;;;5026323;28;20640;-93
2022/12/23 04:05:16;;;;;;;15.33;4.67;;;13.80;96.50;;;;;;5036092;28;20214;-92
2022/12/23 04:07:57;;;;;;;7.77;2.90;;;13.90;96.60;;;;;;5033103;28;20725;-94
2022/12/23 04:10:27;;;;;;;10.00;3.90;;;13.80;96.50;;;;;;5038485;28;20210;-93
2022/12/23 04:13:00;;;;;;;10.03;3.37;;;13.80;96.50;;;;;;5018158;28;20219;-92
2022/12/23 04:15:39;;;;;;;14.73;4.07;;;13.80;96.50;;;;;;5040480;28;20207;-93
2022/12/23 04:18:08;;;;;;;11.37;3.77;;;13.80;96.50;;;;;;5047538;28;20211;-93
2022/12/23 04:20:43;;;;;;;10.17;3.03;;;13.80;96.50;;;;;;5046056;28;20209;-93
2022/12/23 04:23:10;;;;;;;8.90;3.77;;;13.80;96.50;;;;;;5036163;28;20223;-93
2022/12/23 04:25:42;;;;;;;15.13;4.03;;;13.80;96.50;;;;;;5044473;28;20216;-93
2022/12/23 04:28:12;;;;;;;11.73;4.00;;;13.80;96.50;;;;;;5043281;28;20219;-93
2022/12/23 04:30:43;;;;;;;6.77;2.70;;;13.80;96.50;;;;;;5042617;28;20207;-92
2022/12/23 04:33:15;;;;;;;11.80;3.30;;;13.80;96.50;;;;;;5040856;28;20658;-92
2022/12/23 04:35:51;;;;;;;10.80;3.50;;;13.80;96.50;;;;;;5047076;28;20695;-93
2022/12/23 04:38:46;;;;;;;10.93;2.80;;;13.80;96.50;;;;;;5046608;28;20199;-93
2022/12/23 04:41:52;;;;;;;7.47;2.70;;;13.70;96.50;;;;;;5047725;28;20239;-93
2022/12/23 04:44:20;;;;;;;10.20;3.53;;;13.80;96.50;;;;;;5052604;28;20194;-93
2022/12/23 04:46:54;;;;;;;10.83;3.93;;;13.70;96.50;;;;;;5057142;28;20259;-93
2022/12/23 04:49:23;;;;;;;14.90;4.00;;;13.70;96.50;;;;;;5058331;28;20197;-93
2022/12/23 04:51:53;;;;;;;12.97;3.30;;;13.70;96.50;;;;;;5046520;28;20223;-92
2022/12/23 04:54:21;;;;;;;14.90;4.47;;;13.70;96.50;;;;;;5046479;28;20213;-94
2022/12/23 04:56:49;;;;;;;13.23;3.63;;;13.70;96.50;;;;;;5043003;28;20207;-94
2022/12/23 04:59:17;;;;;;;9.90;3.90;;;13.70;96.80;;;;;;5040896;28;20230;-93
2022/12/23 05:01:53;;;;;;;11.47;3.90;;;13.70;96.50;;;;;;5037102;28;20216;-94
2022/12/23 05:04:22;;;;;;;10.03;3.40;;;13.70;96.50;;;;;;5035022;28;20202;-93
2022/12/23 05:06:55;;;;;;;11.43;3.10;;;13.70;96.50;;;;;;5041188;28;20278;-93
2022/12/23 05:09:22;;;;;;;8.23;3.20;;;13.70;96.50;;;;;;5040517;28;20290;-94
2022/12/23 05:11:57;;;;;;;13.57;3.70;;;13.70;96.50;;;;;;5040212;28;20208;-93
2022/12/23 05:14:24;;;;;;;7.67;2.90;;;13.70;96.40;;;;;;5041156;28;20207;-94
2022/12/23 05:16:53;;;;;;;10.90;3.53;;;13.70;96.40;;;;;;5040694;28;20683;-93
2022/12/23 05:19:22;;;;;;;10.47;3.90;;;13.70;96.30;;;;;;5038402;28;20234;-93
2022/12/23 05:21:50;;;;;;;12.20;4.13;;;13.70;96.20;;;;;;5037315;28;20204;-93
2022/12/23 05:24:20;;;;;;;8.97;3.30;;;13.70;96.20;;;;;;5026537;28;20207;-93
2022/12/23 05:26:48;;;;;;;8.40;3.30;;;13.70;96.10;;;;;;5020647;28;20699;-92
2022/12/23 05:29:18;;;;;;;16.93;5.57;;;13.70;96.30;;;;;;5035649;28;20207;-94
2022/12/23 05:31:47;;;;;;;7.43;3.13;;;13.70;96.10;;;;;;5038414;28;20239;-93
2022/12/23 05:34:17;;;;;;;9.30;3.50;;;13.70;96.00;;;;;;5019260;28;20203;-92
2022/12/23 05:36:52;;;;;;;9.67;3.10;;;13.70;96.00;;;;;;5019435;28;20318;-92
2022/12/23 05:39:31;;;;;;;12.93;3.70;;;13.70;96.00;;;;;;5025354;28;20226;-93
2022/12/23 05:41:58;;;;;;;10.43;3.87;;;13.70;95.80;;;;;;5029691;28;20627;-93
2022/12/23 05:44:26;;;;;;;16.53;4.17;;;13.70;96.10;;;;;;5034616;28;20289;-94
2022/12/23 05:46:57;;;;;;;10.27;4.37;;;13.70;96.00;;;;;;5015472;28;20218;-93
2022/12/23 05:49:25;;;;;;;8.87;3.47;;;13.60;95.90;;;;;;5029409;28;20205;-94
2022/12/23 05:51:55;;;;;;;9.07;4.20;;;13.70;95.90;;;;;;5031726;28;20219;-93
2022/12/23 05:54:29;;;;;;;8.73;4.07;;;13.60;95.90;;;;;;5033004;28;20215;-93
2022/12/23 05:57:02;;;;;;;7.93;4.20;;;13.70;95.70;;;;;;5034461;28;20202;-94
2022/12/23 05:59:29;;;;;;;17.20;5.97;;;13.60;95.70;;;;;;5044694;28;20239;-93
2022/12/23 06:02:04;;;;;;;9.20;3.97;;;13.60;95.80;;;;;;5041632;28;20205;-92
2022/12/23 06:04:32;;;;;;;6.63;3.80;;;13.60;95.70;;;;;;5043186;28;20685;-93
2022/12/23 06:07:01;;;;;;;12.90;5.53;;;13.60;95.70;;;;;;5036234;28;20326;-93
2022/12/23 06:09:39;;;;;;;7.20;3.63;;;13.60;95.70;;;;;;5042681;28;20210;-93
2022/12/23 06:12:13;;;;;;;7.63;4.40;;;13.60;95.70;;;;;;5044640;28;20675;-92
2022/12/23 06:14:41;;;;;;;6.80;3.93;;;13.60;95.80;;;;;;5043543;28;20229;-93
2022/12/23 06:17:09;;;;;;;10.50;4.23;;;13.50;95.80;;;;;;5039744;28;20223;-93
2022/12/23 06:19:37;;;;;;;10.13;4.17;;;13.50;95.80;;;;;;5040281;28;20242;-94
2022/12/23 06:22:04;;;;;;;14.33;5.43;;;13.60;95.90;;;;;;5031646;28;20283;-93
2022/12/23 06:24:34;;;;;;;8.23;4.57;;;13.50;95.90;;;;;;5030391;28;20669;-93
2022/12/23 06:27:07;;;;;;;9.87;4.70;;;13.50;95.80;;;;;;5031452;28;20577;-93
2022/12/23 06:29:35;;;;;;;11.33;6.17;;;13.50;95.80;;;;;;5031870;28;20322;-94
2022/12/23 06:32:05;;;;;;;9.37;4.60;;;13.50;95.90;;;;;;5031373;28;20202;-93
2022/12/23 06:34:34;;;;;;;12.57;5.40;;;13.50;95.90;;;;;;5031842;28;20706;-93
2022/12/23 06:37:04;;;;;;;12.90;5.87;;;13.50;95.90;;;;;;5029195;28;20216;-92
2022/12/23 06:39:32;;;;;;;9.10;4.53;;;13.50;95.90;;;;;;5026307;28;20230;-93
2022/12/23 06:42:05;;;;;;;9.43;4.63;;;13.50;96.00;;;;;;5033066;28;20297;-93
2022/12/23 06:44:37;;;;;;;11.50;5.70;;;13.50;96.00;;;;;;5013371;28;20214;-93
2022/12/23 06:47:05;;;;;;;8.50;4.93;;;13.50;96.00;;;;;;5018796;28;20214;-93
2022/12/23 06:49:35;;;;;;;19.00;6.50;;;13.50;96.00;;;;;;5028549;28;20209;-93
2022/12/23 06:52:02;;;;;;;12.83;6.27;;;13.50;96.00;;;;;;5014977;28;20297;-94
2022/12/23 06:54:35;;;;;;;13.20;5.67;;;13.50;96.00;;;;;;5041125;28;20207;-93
2022/12/23 06:57:04;;;;;;;9.17;4.73;;;13.50;95.90;;;;;;5048608;28;20215;-93
2022/12/23 06:59:34;;;;;;;12.07;5.80;;;13.50;96.00;;;;;;5047978;28;20243;-94
2022/12/23 07:02:02;;;;;;;8.60;5.10;;;13.50;96.00;;;;;;5038032;28;20234;-93
2022/12/23 07:04:34;;;;;;;9.53;5.07;;;13.50;95.90;;;;;;5018858;28;20223;-94
2022/12/23 07:07:03;;;;;;;13.03;5.80;;;13.50;95.90;;;;;;5016617;28;20637;-93
2022/12/23 07:09:31;;;;;;;13.50;6.83;;;13.50;95.90;;;;;;5015435;28;20198;-93
2022/12/23 07:11:58;;;;;;;9.37;5.13;;;13.50;95.90;;;;;;5033236;28;20225;-93
2022/12/23 07:14:28;;;;;;;12.63;5.67;;;13.50;95.90;;;;;;5016030;28;20207;-93
2022/12/23 07:16:55;;;;;;;13.03;6.23;;;13.50;96.00;;;;;;5027714;28;20218;-92
2022/12/23 07:19:26;;;;;;;13.57;6.50;;;13.50;96.00;;;;;;5032692;28;20277;-93
2022/12/23 07:21:59;;;;;;;11.63;5.03;;;13.50;96.10;;;;;;5035171;28;20258;-93
2022/12/23 07:24:29;;;;;;;5.87;4.30;;;13.50;96.00;;;;;;5052981;28;20206;-95
2022/12/23 07:27:03;;;;;;;8.93;5.10;;;13.50;96.10;;;;;;5051149;28;20218;-94
2022/12/23 07:29:32;;;;;;;11.13;5.60;;;13.50;96.10;;;;;;5049336;28;20789;-93
2022/12/23 07:32:01;;;;;;;14.10;5.63;;;13.50;96.00;;;;;;5038431;28;20626;-93
2022/12/23 07:34:29;;;;;;;10.07;5.90;;;13.50;96.10;;;;;;5034298;28;20293;-93
2022/12/23 07:36:58;;;;;;;12.77;6.30;;;13.50;96.10;;;;;;5020613;28;20439;-93
2022/12/23 07:39:26;;;;;;;13.77;6.20;;;13.50;96.10;;;;;;5029452;28;20782;-93
2022/12/23 07:41:53;;;;;;;14.93;6.67;;;13.50;96.30;;;;;;5018123;28;20208;-92
2022/12/23 07:44:23;;;;;;;11.87;6.40;;;13.50;96.00;;;;;;5020092;28;20202;-93
2022/12/23 07:46:52;;;;;;;16.90;7.63;;;13.50;96.00;;;;;;5023622;28;20206;-93
2022/12/23 07:49:21;;;;;;;15.13;6.57;;;13.40;95.90;;;;;;5021242;28;20210;-94
2022/12/23 07:51:50;;;;;;;13.03;5.90;;;13.50;96.00;;;;;;5040480;28;20236;-93
2022/12/23 07:54:19;;;;;;;11.50;5.80;;;13.50;96.00;;;;;;5052233;28;20200;-93
2022/12/23 07:56:52;;;;;;;10.57;5.60;;;13.50;95.90;;;;;;5049524;28;20214;-93
2022/12/23 07:59:21;;;;;;;10.27;5.47;;;13.40;95.90;;;;;;5050206;28;20204;-93
2022/12/23 08:01:56;;;;;;;18.63;6.43;;;13.40;96.00;;;;;;5036841;28;20198;-93
2022/12/23 08:05:09;;;;;;;8.37;5.17;;;13.40;96.00;;;;;;5045528;28;20209;-93
2022/12/23 08:07:43;;;;;;;14.60;6.90;;;13.40;96.10;;;;;;5032436;28;20213;-92
2022/12/23 08:10:29;;;;;;;19.00;6.47;;;13.40;96.10;;;;;;5053301;28;20273;-93
2022/12/23 08:13:09;;;;;;;8.53;5.50;;;13.40;96.10;;;;;;5045283;28;20203;-93
2022/12/23 08:15:40;;;;;;;10.63;5.50;;;13.40;96.10;;;;;;5040639;28;20205;-93
2022/12/23 08:18:19;;;;;;;6.33;4.43;;;13.40;96.10;;;;;;5028007;28;20237;-91
2022/12/23 08:20:57;;;;;;;12.40;4.97;;;13.40;96.00;;;;;;5049298;28;20248;-93
2022/12/23 08:23:27;;;;;;;10.83;4.77;;;13.40;96.10;;;;;;5045275;28;20743;-93
2022/12/23 08:26:07;;;;;;;8.73;4.53;;;13.40;96.00;;;;;;5048417;28;20273;-93
2022/12/23 08:28:41;;;;;;;10.23;4.77;;;13.40;96.10;;;;;;5045371;28;20206;-92
2022/12/23 08:31:12;;;;;;;12.33;4.47;;;13.40;96.10;;;;;;5036267;28;20261;-92
2022/12/23 08:33:54;;;;;;;13.83;4.27;;;13.30;96.00;;;;;;5042672;28;20204;-93
2022/12/23 08:36:26;;;;;;;12.47;4.50;;;13.30;96.10;;;;;;5051105;28;20209;-93
2022/12/23 08:39:04;;;;;;;5.87;3.70;;;13.30;96.10;;;;;;5052526;28;20217;-93
2022/12/23 08:42:01;;;;;;;14.00;4.83;;;13.30;96.10;;;;;;5036775;28;20209;-92
2022/12/23 08:44:29;;;;;;;9.80;4.17;;;13.30;96.30;;;;;;5036466;28;20204;-93
2022/12/23 08:46:57;;;;;;;10.40;3.90;;;13.30;96.20;;;;;;5042987;28;20217;-93
2022/12/23 08:49:28;;;;;;;14.00;4.83;;;13.30;96.30;;;;;;5037032;28;20232;-92
2022/12/23 08:51:55;;;;;;;11.87;5.17;;;13.30;96.30;;;;;;5038303;28;20655;-93
2022/12/23 08:54:24;;;;;;;10.33;4.63;;;13.20;96.20;;;;;;5024942;28;20229;-93
2022/12/23 08:56:57;;;;;;;14.57;5.10;;;13.20;96.30;;;;;;5034256;28;20218;-93
2022/12/23 08:59:24;;;;;;;9.90;4.57;;;13.20;96.50;;;;;;5035935;28;20579;-93
2022/12/23 09:02:00;;;;;;;16.83;5.57;;;13.20;96.50;;;;;;5037939;28;20320;-93
2022/12/23 09:04:31;;;;;;;14.00;5.77;;;13.20;96.50;;;;;;5032753;28;20194;-92
2022/12/23 09:07:01;;;;;;;17.20;5.63;;;13.20;96.60;;;;;;5030973;28;20916;-93
2022/12/23 09:09:28;;;;;;;18.47;6.83;;;13.20;96.60;;;;;;5032346;28;20258;-93
2022/12/23 09:11:59;;;;;;;11.70;5.00;;;13.20;96.50;;;;;;5031636;28;20680;-92
2022/12/23 09:14:27;;;;;;;17.83;7.00;;;13.20;96.60;;;;;;5030165;28;20207;-93
2022/12/23 09:16:59;;;;;;;13.57;6.40;;;13.20;96.60;;;;;;5033858;28;20701;-93
2022/12/23 09:19:26;;;;;;;13.73;5.77;;;13.20;96.60;;;;;;5030921;28;20745;-93
2022/12/23 09:21:55;;;;;;;12.73;5.30;;;13.20;96.70;;;;;;5030444;28;20263;-92
2022/12/23 09:24:27;;;;;;;15.07;6.07;;;13.20;96.80;;;;;;5034095;28;20207;-93
2022/12/23 09:26:56;;;;;;;16.70;6.90;;;13.20;96.80;;;;;;5039469;28;20204;-93
2022/12/23 09:29:23;;;;;;;12.53;6.27;;;13.20;96.80;;;;;;5037757;28;20202;-93
2022/12/23 09:31:53;;;;;;;15.00;5.80;;;13.20;96.80;;;;;;5040508;28;20685;-93
2022/12/23 09:34:21;;;;;;;16.07;6.30;;;13.30;97.00;;;;;;5034983;28;20227;-92
2022/12/23 09:36:48;;;;;;;12.00;6.27;;;13.30;96.90;;;;;;5033463;28;20208;-93
2022/12/23 09:39:18;;;;;;;15.27;6.50;;;13.20;96.90;;;;;;5030789;28;20206;-93
2022/12/23 09:41:55;;;;;;;16.77;6.13;;;13.30;96.90;;;;;;5029627;28;20237;-93
2022/12/23 09:44:55;;;;;;;13.73;5.90;;;13.30;97.00;;;;;;5031553;28;20202;-93
2022/12/23 09:47:26;;;;;;;11.67;6.13;;;13.30;97.00;;;;;;5039355;28;20298;-93
2022/12/23 09:50:01;;;;;;;10.13;4.90;;;13.30;97.00;;;;;;5027365;28;20222;-93
2022/12/23 09:52:42;;;;;;;11.13;5.20;;;13.30;97.10;;;;;;5043522;28;20238;-93
2022/12/23 09:55:29;;;;;;;14.33;5.67;;;13.40;97.10;;;;;;5046864;28;20192;-92
2022/12/23 09:58:03;;;;;;;9.97;5.80;;;13.40;97.20;;;;;;5031868;28;20631;-93
2022/12/23 10:00:38;;;;;;;11.90;5.40;;;13.40;97.10;;;;;;5046540;28;20229;-92
2022/12/23 10:03:20;;;;;;;8.00;4.83;;;13.40;97.10;;;;;;5049085;28;20199;-93
2022/12/23 10:05:57;;;;;;;12.10;5.57;;;13.40;97.10;;;;;;5051258;28;20278;-93
2022/12/23 10:08:34;;;;;;;13.17;5.80;;;13.40;97.10;;;;;;5045086;28;20594;-92
2022/12/23 10:11:11;;;;;;;9.00;4.77;;;13.40;97.10;;;;;;5035709;28;20212;-94
2022/12/23 10:13:42;;;;;;;12.17;5.40;;;13.40;97.20;;;;;;5028241;28;20294;-93
2022/12/23 10:16:19;;;;;;;7.23;4.97;;;13.40;97.10;;;;;;5044023;28;20219;-93
2022/12/23 10:18:53;;;;;;;10.80;5.70;;;13.40;97.10;;;;;;5050541;28;20179;-93
2022/12/23 10:21:41;;;;;;;9.00;4.97;;;13.40;97.10;;;;;;5046535;28;20219;-93
2022/12/23 10:24:16;;;;;;;11.10;5.40;;;13.50;97.20;;;;;;5040922;28;20259;-94
2022/12/23 10:26:53;;;;;;;6.37;4.00;;;13.50;97.20;;;;;;5036432;28;20256;-94
2022/12/23 10:29:22;;;;;;;10.90;5.07;;;13.50;97.20;;;;;;5030045;28;20207;-92
2022/12/23 10:32:03;;;;;;;9.03;4.70;;;13.50;97.10;;;;;;5019537;28;20208;-94
2022/12/23 10:34:45;;;;;;;9.03;4.80;;;13.50;97.10;;;;;;5033641;28;20661;-93
2022/12/23 10:37:22;;;;;;;6.97;4.17;;;13.50;97.00;;;;;;5028025;28;20257;-93
2022/12/23 10:40:11;;;;;;;11.37;5.73;;;13.60;97.00;;;;;;5021387;28;20210;-93
2022/12/23 10:42:47;;;;;;;6.00;3.90;;;13.60;97.10;;;;;;5049384;28;20208;-94
2022/12/23 10:45:30;;;;;;;8.63;5.00;;;13.60;97.10;;;;;;5042824;28;20206;-94
2022/12/23 10:48:16;;;;;;;9.77;4.73;;;13.60;97.00;;;;;;5036274;28;20219;-94
2022/12/23 10:50:57;;;;;;;7.83;4.43;;;13.60;97.00;;;;;;5033196;28;20217;-94
2022/12/23 10:53:39;;;;;;;8.37;4.70;;;13.60;97.00;;;;;;5028758;28;20238;-92
2022/12/23 10:56:08;;;;;;;7.93;4.77;;;13.60;97.10;;;;;;5009281;28;20261;-93
2022/12/23 10:58:42;;;;;;;8.67;4.50;;;13.60;97.10;;;;;;5032140;28;20249;-92
2022/12/23 11:01:13;;;;;;;8.10;5.43;;;13.60;97.20;;;;;;5033391;28;20234;-93
2022/12/23 11:03:48;;;;;;;13.53;6.97;;;13.60;97.10;;;;;;5014671;28;20199;-93
2022/12/23 11:06:16;;;;;;;9.97;5.27;;;13.60;97.10;;;;;;5025891;28;20233;-94
2022/12/23 11:08:47;;;;;;;9.47;5.93;;;13.60;97.00;;;;;;5022350;28;20193;-94
2022/12/23 11:11:53;;;;;;;8.37;5.60;;;13.60;97.00;;;;;;5046287;28;20199;-93
2022/12/23 11:14:50;;;;;;;10.30;6.10;;;13.60;97.10;;;;;;5056167;28;20199;-94
2022/12/23 11:17:28;;;;;;;11.17;6.40;;;13.70;97.10;;;;;;5053535;28;20210;-92
2022/12/23 11:20:15;;;;;;;10.17;6.70;;;13.70;97.10;;;;;;5049879;28;20221;-94
2022/12/23 11:22:51;;;;;;;11.33;6.60;;;13.70;97.10;;;;;;5043843;28;20198;-94
2022/12/23 11:25:42;;;;;;;11.07;6.63;;;13.70;97.00;;;;;;5042129;28;20217;-93
2022/12/23 11:28:17;;;;;;;8.57;6.70;;;13.70;97.00;;;;;;5050826;28;20200;-94
2022/12/23 11:31:04;;;;;;;13.27;7.83;;;13.70;97.00;;;;;;5049043;28;20205;-93
2022/12/23 11:34:00;;;;;;;10.37;6.63;;;13.70;97.00;;;;;;5041754;28;20300;-94
2022/12/23 11:36:55;;;;;;;8.70;6.20;;;13.80;97.10;;;;;;5045718;28;20294;-94
2022/12/23 11:39:32;;;;;;;10.07;6.73;;;13.70;97.10;;;;;;5046507;28;20219;-94
2022/12/23 11:42:17;;;;;;;12.43;7.47;;;13.70;97.10;;;;;;5048183;28;20236;-94
2022/12/23 11:44:54;;;;;;;6.70;5.50;;;13.70;97.20;;;;;;5052310;28;20207;-93
2022/12/23 11:47:34;;;;;;;7.00;5.20;;;13.70;97.30;;;;;;5051276;28;20206;-93
2022/12/23 11:50:32;;;;;;;6.77;4.27;;;13.80;97.30;;;;;;5054519;28;20617;-94
2022/12/23 11:53:13;;;;;;;7.93;4.70;;;13.80;97.30;;;;;;5047189;28;20268;-93
2022/12/23 11:55:57;;;;;;;8.23;4.77;;;13.80;97.30;;;;;;5053409;28;20201;-93
2022/12/23 11:58:31;;;;;;;4.97;4.00;;;13.80;97.30;;;;;;5055474;28;20223;-95
2022/12/23 12:01:01;;;;;;;9.10;5.20;;;13.80;97.30;;;;;;5052458;28;20222;-93
2022/12/23 12:03:43;;;;;;;8.87;4.63;;;13.80;97.30;;;;;;5048204;28;20217;-94
2022/12/23 12:06:20;;;;;;;9.67;4.77;;;13.80;97.30;;;;;;5045724;28;20226;-94
2022/12/23 12:08:56;;;;;;;6.47;3.93;;;13.90;97.30;;;;;;5043551;28;20206;-94
2022/12/23 12:11:37;;;;;;;6.33;3.83;;;13.90;97.40;;;;;;5047968;28;20221;-94
2022/12/23 12:14:10;;;;;;;6.90;3.57;;;13.90;97.50;;;;;;5046876;28;20309;-93
2022/12/23 12:16:52;;;;;;;5.53;3.37;;;13.90;97.60;;;;;;5046657;28;20234;-94
2022/12/23 12:19:31;;;;;;;4.90;3.00;;;13.80;97.80;;;;;;5051245;28;20209;-93
2022/12/23 12:22:15;;;;;;;4.90;2.93;;;13.90;98.00;;;;;;5045815;28;20299;-94
2022/12/23 12:24:52;;;;;;;5.37;3.53;;;13.90;98.30;;;;;;5033878;28;20196;-95
2022/12/23 12:27:24;;;;;;;8.17;3.97;;;13.90;98.50;;;;;;5045696;28;20206;-95
2022/12/23 12:29:57;;;;;;;6.53;3.57;;;13.90;98.50;;;;;;5030948;28;20216;-94
2022/12/23 12:32:41;;;;;;;6.00;3.10;;;13.90;98.80;;;;;;5038548;28;20261;-94
2022/12/23 12:35:18;;;;;;;6.30;3.23;;;14.00;99.10;;;;;;5038420;28;20274;-93
2022/12/23 12:37:49;;;;;;;9.07;4.10;;;14.00;99.60;;;;;;5057991;28;20377;-94
2022/12/23 12:40:30;;;;;;;6.37;2.63;;;14.10;99.90;;;;;;5024492;28;20246;-94
2022/12/23 12:43:03;;;;;;;9.63;3.97;;;14.10;99.90;;;;;;5039811;28;20226;-94
2022/12/23 12:45:45;;;;;;;6.40;2.60;;;14.20;99.90;;;;;;5032219;28;20218;-93
2022/12/23 12:48:29;;;;;;;11.57;3.80;;;14.30;99.90;;;;;;5032536;28;20942;-93
2022/12/23 12:51:05;;;;;;;11.53;3.73;;;14.40;99.90;;;;;;5038431;28;20213;-95
2022/12/23 12:53:35;;;;;;;11.13;4.03;;;14.50;99.90;;;;;;5036255;28;20218;-94
2022/12/23 12:56:08;;;;;;;7.30;2.60;;;14.60;99.90;;;;;;5034148;28;20224;-94
2022/12/23 12:58:36;;;;;;;5.43;1.57;;;14.70;99.90;;;;;;5037541;28;20218;-93
2022/12/23 13:01:23;;;;;;;7.83;2.37;;;14.80;99.90;;;;;;5040955;28;20217;-94
2022/12/23 13:04:18;;;;;;;6.80;2.30;;;14.90;99.90;;;;;;5035532;28;20570;-93
2022/12/23 13:07:04;;;;;;;8.20;2.57;;;15.00;99.90;;;;;;5023425;28;20206;-94
2022/12/23 13:09:42;;;;;;;6.63;2.33;;;15.10;99.90;;;;;;5038828;28;20242;-94
2022/12/23 13:12:22;;;;;;;6.77;1.93;;;15.20;99.90;;;;;;5033525;28;20208;-94
2022/12/23 13:15:02;;;;;;;7.03;2.70;;;15.30;99.90;;;;;;5035071;28;20207;-93
2022/12/23 13:17:44;;;;;;;10.97;3.67;;;15.30;99.90;;;;;;5034883;28;20218;-93
2022/12/23 13:20:24;;;;;;;9.87;2.17;;;15.40;99.90;;;;;;5033954;28;20218;-93
2022/12/23 13:23:00;;;;;;;10.57;3.43;;;15.40;99.90;;;;;;5033740;28;20228;-94
2022/12/23 13:25:36;;;;;;;6.10;2.23;;;15.50;99.90;;;;;;5035247;28;20200;-93
2022/12/23 13:28:32;;;;;;;10.40;3.63;;;15.50;99.90;;;;;;5036470;28;20215;-92
2022/12/23 13:31:10;;;;;;;6.20;3.03;;;15.60;99.90;;;;;;5044597;28;20285;-94
2022/12/23 13:33:44;;;;;;;12.23;4.33;;;15.60;99.90;;;;;;5037044;28;20287;-94
2022/12/23 13:36:22;;;;;;;8.13;2.77;;;15.70;99.90;;;;;;5040455;28;20307;-93
2022/12/23 13:39:08;;;;;;;7.27;3.20;;;15.70;99.90;;;;;;5042125;28;20207;-93
2022/12/23 13:41:40;;;;;;;8.27;3.57;;;15.70;99.90;;;;;;5029985;28;20204;-94
2022/12/23 13:44:10;;;;;;;10.03;3.73;;;15.70;99.90;;;;;;5025021;28;20213;-93
2022/12/23 13:46:50;;;;;;;11.43;3.73;;;15.80;99.80;;;;;;5037377;28;20197;-94
2022/12/23 13:49:30;;;;;;;12.30;4.10;;;15.80;99.80;;;;;;5036452;28;20609;-93
2022/12/23 13:52:05;;;;;;;9.57;3.07;;;15.80;99.60;;;;;;5036024;28;20242;-92